Time;durP1;ratioP1;P1;durP2;ratioP2;P2;SDS_P1;SDS_P2;PMS_P1;PMS_P2;Temp;Humidity;BMP_temperature;BMP_pressure;BME280_temperature;BME280_humidity;BME280_pressure;Samples;Min_cycle;Max_cycle;Signal;HPM_P1;HPM_P2
2023/12/09 00:02:07;;;;;;;18.50;6.73;;;;;;;6.21;71.51;99151.44;5031316;28;20693;-89
2023/12/09 00:04:34;;;;;;;19.27;7.63;;;;;;;6.18;71.78;99156.78;5030201;28;20189;-89
2023/12/09 00:07:00;;;;;;;16.87;7.53;;;;;;;6.30;71.63;99158.94;5030760;28;20699;-89
2023/12/09 00:09:26;;;;;;;17.30;7.00;;;;;;;6.29;71.63;99157.25;5030185;28;20181;-89
2023/12/09 00:11:52;;;;;;;17.90;6.47;;;;;;;6.22;71.16;99153.16;5030093;28;20190;-88
2023/12/09 00:14:20;;;;;;;12.37;6.40;;;;;;;6.14;71.45;99144.75;5031941;28;20170;-91
2023/12/09 00:16:45;;;;;;;16.03;6.80;;;;;;;6.08;71.49;99150.16;5030173;28;20617;-90
2023/12/09 00:19:12;;;;;;;16.23;7.30;;;;;;;6.02;71.37;99145.19;5023957;28;20212;-89
2023/12/09 00:21:38;;;;;;;16.70;6.40;;;;;;;6.03;72.18;99144.28;5096745;28;20175;-89
2023/12/09 00:24:05;;;;;;;14.57;7.23;;;;;;;6.02;72.38;99150.41;5047208;28;20179;-89
2023/12/09 00:26:32;;;;;;;20.07;7.97;;;;;;;6.08;72.10;99152.78;5051600;28;20207;-90
2023/12/09 00:28:57;;;;;;;14.53;7.10;;;;;;;6.12;71.57;99159.59;5049890;28;20553;-89
2023/12/09 00:31:23;;;;;;;17.27;7.60;;;;;;;6.11;72.30;99156.13;5050851;28;20199;-89
2023/12/09 00:33:48;;;;;;;15.30;7.03;;;;;;;6.15;71.97;99162.09;5050066;28;20239;-89
2023/12/09 00:36:14;;;;;;;15.20;7.73;;;;;;;6.22;71.74;99163.56;5050000;28;20596;-89
2023/12/09 00:38:39;;;;;;;14.60;7.60;;;;;;;6.29;71.86;99159.00;5050638;28;20181;-89
2023/12/09 00:41:05;;;;;;;15.97;7.13;;;;;;;6.28;71.35;99159.91;5049675;28;20189;-89
2023/12/09 00:43:31;;;;;;;16.03;7.27;;;;;;;6.28;71.40;99160.75;5049726;28;20632;-88
2023/12/09 00:45:58;;;;;;;15.23;6.83;;;;;;;6.29;71.21;99157.25;5033947;28;20205;-88
2023/12/09 00:48:25;;;;;;;21.67;8.20;;;;;;;6.25;71.48;99158.25;5030246;28;20181;-88
2023/12/09 00:50:52;;;;;;;19.23;8.80;;;;;;;6.29;71.25;99149.44;5030675;28;20192;-89
2023/12/09 00:53:18;;;;;;;12.83;6.07;;;;;;;6.27;71.45;99160.81;5029979;28;20269;-89
2023/12/09 00:55:45;;;;;;;11.73;6.03;;;;;;;6.31;71.09;99165.88;5030648;28;20176;-89
2023/12/09 00:58:11;;;;;;;14.07;7.63;;;;;;;6.31;71.24;99173.69;5030371;28;20206;-89
2023/12/09 01:00:37;;;;;;;14.53;7.43;;;;;;;6.35;70.41;99162.25;5029505;28;20220;-89
2023/12/09 01:03:05;;;;;;;18.20;7.97;;;;;;;6.35;70.40;99167.44;5029272;28;20641;-88
2023/12/09 01:05:30;;;;;;;17.83;7.70;;;;;;;6.34;70.30;99162.31;5046403;28;20760;-89
2023/12/09 01:07:57;;;;;;;12.23;7.00;;;;;;;6.37;70.67;99164.81;5034632;28;20188;-89
2023/12/09 01:10:23;;;;;;;20.30;7.80;;;;;;;6.26;70.02;99154.78;5037286;28;20208;-89
2023/12/09 01:12:50;;;;;;;13.90;6.47;;;;;;;6.16;70.19;99148.16;5037185;28;20186;-89
2023/12/09 01:15:17;;;;;;;16.90;8.07;;;;;;;6.11;69.28;99152.66;5036287;28;20184;-89
2023/12/09 01:17:44;;;;;;;15.27;6.90;;;;;;;6.11;69.95;99160.47;5037334;28;20182;-89
2023/12/09 01:20:10;;;;;;;18.70;7.30;;;;;;;6.08;70.00;99163.19;5035694;28;20224;-89
2023/12/09 01:22:35;;;;;;;17.50;7.20;;;;;;;6.01;69.92;99154.75;5037159;28;20648;-88
2023/12/09 01:25:01;;;;;;;19.40;7.43;;;;;;;6.04;70.20;99159.84;5035932;28;20254;-89
2023/12/09 01:27:27;;;;;;;19.37;8.93;;;;;;;6.08;69.79;99160.56;5036911;28;20203;-89
2023/12/09 01:29:54;;;;;;;19.27;8.50;;;;;;;6.05;69.59;99165.91;5036883;28;20186;-90
2023/12/09 01:32:20;;;;;;;16.67;7.43;;;;;;;5.96;70.10;99155.81;5035595;28;20595;-89
2023/12/09 01:34:46;;;;;;;15.17;6.70;;;;;;;5.95;70.51;99157.56;5035738;28;20240;-88
2023/12/09 01:37:12;;;;;;;15.97;6.90;;;;;;;5.89;70.30;99162.13;5035584;28;20206;-89
2023/12/09 01:39:38;;;;;;;18.70;8.23;;;;;;;5.84;71.27;99164.00;5036575;28;20244;-89
2023/12/09 01:42:05;;;;;;;16.93;8.33;;;;;;;5.86;71.06;99157.03;5035793;28;20573;-89
2023/12/09 01:44:32;;;;;;;14.23;6.83;;;;;;;5.94;70.53;99157.63;5035970;28;20185;-89
2023/12/09 01:47:00;;;;;;;15.93;7.37;;;;;;;5.97;70.42;99158.38;5035767;28;20209;-90
2023/12/09 01:49:27;;;;;;;17.23;6.53;;;;;;;5.90;70.84;99151.66;5036385;28;20261;-88
2023/12/09 01:51:55;;;;;;;17.43;6.57;;;;;;;5.88;71.38;99152.59;5035486;28;20193;-89
2023/12/09 01:54:22;;;;;;;15.90;7.37;;;;;;;5.80;71.75;99164.97;5035668;28;20196;-91
2023/12/09 01:56:49;;;;;;;13.87;6.87;;;;;;;5.76;72.38;99159.06;5035955;28;20695;-89
2023/12/09 01:59:15;;;;;;;17.87;7.20;;;;;;;5.79;71.98;99158.09;5036844;28;20624;-89
2023/12/09 02:01:44;;;;;;;18.37;8.37;;;;;;;5.71;72.11;99155.75;5036753;28;20241;-89
2023/12/09 02:04:10;;;;;;;16.20;7.43;;;;;;;5.77;72.69;99162.47;5035882;28;20206;-89
2023/12/09 02:06:36;;;;;;;20.27;7.37;;;;;;;5.82;72.37;99163.16;5036234;28;20592;-89
2023/12/09 02:09:03;;;;;;;12.13;6.90;;;;;;;5.74;72.65;99155.63;5036305;28;20183;-89
2023/12/09 02:11:41;;;;;;;11.73;6.47;;;;;;;5.63;73.08;99162.09;5036313;28;20178;-90
2023/12/09 02:14:17;;;;;;;21.57;8.13;;;;;;;5.65;73.43;99155.09;5035886;28;20270;-89
2023/12/09 02:17:11;;;;;;;19.50;7.60;;;;;;;5.74;72.95;99157.41;5036304;28;20223;-89
2023/12/09 02:19:38;;;;;;;21.73;8.10;;;;;;;5.81;72.56;99157.16;5033882;28;20167;-88
2023/12/09 02:22:06;;;;;;;16.60;8.10;;;;;;;5.78;73.03;99151.19;5031618;28;20287;-89
2023/12/09 02:24:33;;;;;;;20.67;9.00;;;;;;;5.75;72.92;99157.34;5031315;28;20213;-89
2023/12/09 02:27:06;;;;;;;19.47;8.20;;;;;;;5.75;72.87;99153.88;5032609;28;20617;-89
2023/12/09 02:29:39;;;;;;;15.03;7.27;;;;;;;5.63;73.16;99151.69;5032865;28;20705;-90
2023/12/09 02:32:07;;;;;;;16.30;8.70;;;;;;;5.67;73.37;99155.88;5031822;28;20532;-89
2023/12/09 02:34:37;;;;;;;19.33;8.50;;;;;;;5.76;73.81;99148.66;5033229;28;20184;-89
2023/12/09 02:37:05;;;;;;;17.13;7.43;;;;;;;5.77;73.32;99157.28;5031818;28;20166;-89
2023/12/09 02:39:33;;;;;;;20.47;7.37;;;;;;;5.75;73.28;99166.88;5031635;28;20171;-89
2023/12/09 02:41:59;;;;;;;18.20;9.23;;;;;;;5.82;73.49;99152.78;5032520;28;20189;-89
2023/12/09 02:44:25;;;;;;;19.00;7.73;;;;;;;5.75;73.06;99156.47;5031164;28;20228;-89
2023/12/09 02:46:56;;;;;;;17.27;7.97;;;;;;;5.75;73.67;99154.72;5032671;28;20662;-89
2023/12/09 02:49:23;;;;;;;25.30;9.43;;;;;;;5.79;73.34;99155.50;5031835;28;20195;-89
2023/12/09 02:51:50;;;;;;;24.23;8.80;;;;;;;5.82;73.35;99153.63;5031306;28;20186;-88
2023/12/09 02:54:16;;;;;;;18.43;9.77;;;;;;;5.89;73.17;99155.19;5032828;28;20232;-89
2023/12/09 02:56:44;;;;;;;25.97;8.27;;;;;;;5.93;73.01;99161.97;5032570;28;20182;-89
2023/12/09 02:59:10;;;;;;;16.07;8.47;;;;;;;5.90;72.47;99153.41;5032463;28;20190;-89
2023/12/09 03:01:37;;;;;;;17.83;8.30;;;;;;;5.90;73.45;99156.00;5030880;28;20190;-89
2023/12/09 03:04:02;;;;;;;19.77;9.20;;;;;;;5.93;73.39;99150.69;5031384;28;20193;-89
2023/12/09 03:06:28;;;;;;;22.10;9.33;;;;;;;5.98;72.98;99154.00;5031470;28;20560;-90
2023/12/09 03:08:55;;;;;;;22.10;9.43;;;;;;;6.00;72.76;99155.63;5032259;28;20255;-89
2023/12/09 03:11:20;;;;;;;12.80;7.20;;;;;;;5.98;72.36;99154.00;5030784;28;20617;-89
2023/12/09 03:13:47;;;;;;;20.33;8.87;;;;;;;6.01;72.40;99157.34;5032044;28;20178;-89
2023/12/09 03:16:13;;;;;;;19.03;9.03;;;;;;;6.05;72.43;99158.94;5031081;28;20186;-89
2023/12/09 03:18:39;;;;;;;16.07;6.73;;;;;;;6.10;72.18;99158.81;5031988;28;20263;-89
2023/12/09 03:21:06;;;;;;;17.93;8.60;;;;;;;6.15;72.13;99156.88;5032021;28;20667;-89
2023/12/09 03:23:31;;;;;;;14.80;7.43;;;;;;;6.08;71.74;99161.44;5030806;28;20203;-89
2023/12/09 03:25:57;;;;;;;17.97;8.00;;;;;;;6.03;72.18;99152.94;5030843;28;20218;-89
2023/12/09 03:28:24;;;;;;;14.43;7.43;;;;;;;6.06;72.25;99149.38;5032127;28;20684;-89
2023/12/09 03:30:50;;;;;;;18.30;8.77;;;;;;;6.10;72.34;99154.44;5029933;28;20191;-89
2023/12/09 03:33:17;;;;;;;26.07;9.33;;;;;;;6.06;71.82;99158.03;5031669;28;20179;-89
2023/12/09 03:35:44;;;;;;;15.57;8.23;;;;;;;6.04;72.22;99164.19;5032054;28;20196;-89
2023/12/09 03:38:09;;;;;;;18.77;8.57;;;;;;;6.02;72.84;99166.88;5030356;28;20183;-89
2023/12/09 03:40:36;;;;;;;19.23;8.63;;;;;;;5.99;72.86;99156.56;5030770;28;20195;-89
2023/12/09 03:43:02;;;;;;;16.60;7.87;;;;;;;6.02;72.82;99155.59;5030670;28;20219;-89
2023/12/09 03:45:27;;;;;;;19.37;8.73;;;;;;;6.11;72.05;99155.28;5032105;28;20225;-90
2023/12/09 03:47:53;;;;;;;19.70;8.30;;;;;;;6.16;72.15;99158.56;5031937;28;20178;-89
2023/12/09 03:50:19;;;;;;;17.93;8.40;;;;;;;6.17;72.42;99157.69;5030968;28;20192;-89
2023/12/09 03:52:46;;;;;;;16.47;7.37;;;;;;;6.17;72.50;99157.69;5032056;28;20637;-89
2023/12/09 03:55:15;;;;;;;18.60;9.07;;;;;;;6.18;71.84;99151.59;5030375;28;20599;-89
2023/12/09 03:57:41;;;;;;;17.40;8.37;;;;;;;6.23;71.87;99156.63;5031418;28;20217;-89
2023/12/09 04:00:09;;;;;;;13.63;7.60;;;;;;;6.19;71.33;99150.66;5030580;28;20312;-89
2023/12/09 04:02:36;;;;;;;27.67;11.27;;;;;;;6.20;71.55;99154.97;5031463;28;20650;-89
2023/12/09 04:05:01;;;;;;;23.93;11.10;;;;;;;6.20;71.42;99149.78;5030175;28;20541;-89
2023/12/09 04:07:28;;;;;;;19.47;8.93;;;;;;;6.24;71.31;99155.72;5031212;28;20227;-90
2023/12/09 04:09:55;;;;;;;23.63;9.80;;;;;;;6.22;71.14;99155.75;5030570;28;20244;-89
2023/12/09 04:12:21;;;;;;;22.77;9.70;;;;;;;6.26;70.97;99148.72;5044765;28;20181;-89
2023/12/09 04:14:47;;;;;;;19.73;9.13;;;;;;;6.29;69.92;99144.22;5010463;28;20202;-89
2023/12/09 04:17:13;;;;;;;20.30;8.20;;;;;;;6.24;70.02;99147.91;5011505;28;20258;-89
2023/12/09 04:19:38;;;;;;;19.47;8.77;;;;;;;6.23;70.33;99144.47;5018525;28;20272;-90
2023/12/09 04:22:05;;;;;;;22.60;8.33;;;;;;;6.14;69.85;99143.03;5030925;28;20589;-89
2023/12/09 04:24:32;;;;;;;18.90;8.20;;;;;;;6.13;70.03;99143.09;5030789;28;20653;-90
2023/12/09 04:26:59;;;;;;;24.30;9.07;;;;;;;6.12;70.71;99130.97;5031113;28;20249;-89
2023/12/09 04:29:25;;;;;;;19.07;9.07;;;;;;;6.10;70.29;99138.84;5031298;28;20183;-89
2023/12/09 04:31:52;;;;;;;15.77;8.37;;;;;;;6.05;70.67;99145.09;5030362;28;20184;-89
2023/12/09 04:34:18;;;;;;;21.63;9.93;;;;;;;6.05;71.23;99155.50;5029729;28;20541;-89
2023/12/09 04:36:44;;;;;;;22.73;9.77;;;;;;;6.01;70.89;99148.69;5029875;28;20644;-89
2023/12/09 04:39:10;;;;;;;25.00;11.20;;;;;;;6.04;70.85;99153.78;5029917;28;20210;-89
2023/12/09 04:41:37;;;;;;;20.60;9.73;;;;;;;6.06;70.69;99151.97;5029925;28;20680;-89
2023/12/09 04:44:04;;;;;;;21.73;10.73;;;;;;;6.05;70.59;99155.50;5029428;28;20216;-89
2023/12/09 04:46:31;;;;;;;20.80;9.50;;;;;;;5.98;70.92;99154.84;5029917;28;20255;-90
2023/12/09 04:48:59;;;;;;;21.73;9.30;;;;;;;5.96;71.92;99171.41;5029714;28;20636;-89
2023/12/09 04:51:26;;;;;;;21.00;9.47;;;;;;;5.97;71.79;99160.97;5030725;28;20175;-90
2023/12/09 04:53:52;;;;;;;27.27;11.83;;;;;;;6.02;71.95;99169.47;5029361;28;20186;-89
2023/12/09 04:56:20;;;;;;;26.80;10.43;;;;;;;6.02;71.67;99159.06;5029645;28;20175;-89
2023/12/09 04:58:47;;;;;;;26.40;10.73;;;;;;;5.97;72.53;99158.38;5030059;28;20182;-89
2023/12/09 05:01:12;;;;;;;24.03;9.10;;;;;;;5.97;72.24;99165.31;5023601;28;20182;-90
2023/12/09 05:03:39;;;;;;;27.27;9.97;;;;;;;5.82;73.21;99169.22;5010238;28;20539;-88
2023/12/09 05:06:08;;;;;;;21.10;10.13;;;;;;;5.86;73.13;99170.88;5029440;28;20651;-89
2023/12/09 05:08:35;;;;;;;27.47;10.33;;;;;;;5.50;74.82;99175.47;5029511;28;20620;-89
2023/12/09 05:11:00;;;;;;;24.63;11.50;;;;;;;5.45;75.76;99173.94;5029999;28;20280;-89
2023/12/09 05:13:27;;;;;;;22.03;9.70;;;;;;;5.37;76.40;99187.13;5029814;28;20605;-89
2023/12/09 05:15:54;;;;;;;30.03;11.10;;;;;;;5.42;76.70;99182.66;5029524;28;20206;-88
2023/12/09 05:18:21;;;;;;;28.87;8.40;;;;;;;5.80;76.03;99180.59;5029245;28;20186;-89
2023/12/09 05:20:47;;;;;;;19.00;9.37;;;;;;;5.94;74.81;99183.63;5030356;28;20224;-89
2023/12/09 05:23:13;;;;;;;24.93;9.63;;;;;;;5.96;74.59;99184.41;5030809;28;20194;-89
2023/12/09 05:25:40;;;;;;;32.17;10.60;;;;;;;5.93;74.83;99187.97;5030566;28;20659;-89
2023/12/09 05:28:06;;;;;;;29.03;12.67;;;;;;;5.66;75.52;99188.81;5031032;28;20196;-90
2023/12/09 05:30:32;;;;;;;30.77;11.77;;;;;;;5.49;76.78;99201.50;5030657;28;20544;-89
2023/12/09 05:32:59;;;;;;;29.10;11.37;;;;;;;5.50;76.94;99195.44;5030065;28;20184;-89
2023/12/09 05:35:26;;;;;;;24.77;10.00;;;;;;;5.63;76.56;99203.69;5041160;28;20789;-89
2023/12/09 05:37:52;;;;;;;22.10;8.60;;;;;;;5.66;76.46;99198.41;5050198;28;20178;-89
2023/12/09 05:40:18;;;;;;;24.07;10.07;;;;;;;5.78;75.57;99192.78;5048443;28;20181;-89
2023/12/09 05:42:43;;;;;;;21.67;10.60;;;;;;;5.70;75.36;99195.66;5029005;28;20179;-89
2023/12/09 05:45:10;;;;;;;27.53;10.33;;;;;;;5.71;75.12;99199.09;5029030;28;20635;-89
2023/12/09 05:47:37;;;;;;;25.10;9.33;;;;;;;5.75;74.96;99203.28;5017536;28;20321;-89
2023/12/09 05:50:04;;;;;;;18.07;9.87;;;;;;;5.75;74.87;99208.50;5010712;28;20188;-89
2023/12/09 05:52:31;;;;;;;27.67;11.07;;;;;;;5.77;75.26;99207.53;5019143;28;20189;-89
2023/12/09 05:54:58;;;;;;;22.03;9.10;;;;;;;5.75;74.89;99213.69;5031540;28;20177;-89
2023/12/09 05:57:24;;;;;;;20.77;9.03;;;;;;;5.78;74.77;99216.19;5033209;28;20186;-89
2023/12/09 05:59:51;;;;;;;25.40;10.27;;;;;;;5.70;74.25;99220.78;5032522;28;20615;-89
2023/12/09 06:02:17;;;;;;;26.07;10.70;;;;;;;5.66;74.13;99229.59;5032773;28;20617;-89
2023/12/09 06:04:43;;;;;;;57.87;9.00;;;;;;;5.63;74.10;99227.09;5033298;28;20186;-90
2023/12/09 06:07:10;;;;;;;39.93;7.83;;;;;;;5.54;73.87;99226.47;5033304;28;20294;-89
2023/12/09 06:09:37;;;;;;;31.30;8.20;;;;;;;5.57;74.44;99231.59;5032084;28;20264;-89
2023/12/09 06:12:03;;;;;;;33.57;9.33;;;;;;;5.48;74.49;99237.06;5032212;28;20255;-90
2023/12/09 06:14:29;;;;;;;38.17;9.47;;;;;;;5.55;74.02;99232.53;5033019;28;20183;-90
2023/12/09 06:16:57;;;;;;;27.17;8.20;;;;;;;5.50;74.58;99240.44;5032264;28;20239;-89
2023/12/09 06:19:23;;;;;;;20.30;7.40;;;;;;;5.51;74.49;99233.50;5031612;28;20182;-90
2023/12/09 06:21:51;;;;;;;35.07;8.07;;;;;;;5.45;74.66;99241.53;5031485;28;20251;-89
2023/12/09 06:24:17;;;;;;;27.30;7.73;;;;;;;5.49;75.57;99243.09;5033441;28;20185;-90
2023/12/09 06:26:44;;;;;;;35.60;8.47;;;;;;;5.47;74.56;99243.16;5031713;28;20244;-91
2023/12/09 06:29:17;;;;;;;32.13;8.33;;;;;;;5.54;74.95;99244.69;5032339;28;20223;-90
2023/12/09 06:31:42;;;;;;;53.40;11.20;;;;;;;5.54;75.15;99243.81;5032671;28;20227;-89
2023/12/09 06:34:08;;;;;;;34.47;7.37;;;;;;;5.65;74.94;99248.69;5031586;28;20589;-89
2023/12/09 06:36:34;;;;;;;43.30;9.03;;;;;;;5.63;75.04;99250.50;5032563;28;20187;-89
2023/12/09 06:39:01;;;;;;;37.80;7.73;;;;;;;5.61;75.13;99247.09;5015098;28;20650;-89
2023/12/09 06:41:28;;;;;;;46.77;9.10;;;;;;;5.67;74.79;99257.28;5026058;28;20200;-90
2023/12/09 06:43:55;;;;;;;30.37;8.03;;;;;;;5.52;74.87;99251.69;5031661;28;20596;-89
2023/12/09 06:46:22;;;;;;;66.93;9.57;;;;;;;5.49;74.85;99251.75;5031947;28;20243;-90
2023/12/09 06:48:48;;;;;;;49.23;9.90;;;;;;;5.55;74.96;99259.34;5031808;28;20175;-89
2023/12/09 06:51:16;;;;;;;37.90;7.60;;;;;;;5.58;74.98;99261.88;5031574;28;20190;-90
2023/12/09 06:53:42;;;;;;;18.90;7.67;;;;;;;5.49;75.32;99258.72;5032248;28;20178;-90
2023/12/09 06:56:18;;;;;;;25.87;9.47;;;;;;;5.77;74.33;99266.50;5031423;28;20607;-89
2023/12/09 06:58:44;;;;;;;22.77;6.63;;;;;;;5.85;74.22;99262.81;5031500;28;20605;-89
2023/12/09 07:01:24;;;;;;;23.67;7.43;;;;;;;5.81;73.96;99262.94;5032210;28;20197;-90
2023/12/09 07:03:50;;;;;;;29.57;8.60;;;;;;;5.80;74.03;99269.88;5032526;28;20166;-90
2023/12/09 07:06:27;;;;;;;31.67;9.43;;;;;;;5.86;74.19;99269.72;5030784;28;20209;-89
2023/12/09 07:08:55;;;;;;;53.87;9.30;;;;;;;5.96;73.57;99263.31;5031118;28;20195;-89
2023/12/09 07:11:22;;;;;;;27.37;7.40;;;;;;;6.00;74.04;99267.50;5032054;28;20174;-91
2023/12/09 07:13:48;;;;;;;33.97;8.33;;;;;;;5.75;74.42;99273.50;5031644;28;20676;-89
2023/12/09 07:16:15;;;;;;;23.33;7.70;;;;;;;5.90;74.40;99271.31;5032270;28;20178;-88
2023/12/09 07:18:46;;;;;;;59.63;16.50;;;;;;;5.89;74.10;99273.97;5030670;28;20188;-89
2023/12/09 07:21:15;;;;;;;25.10;9.30;;;;;;;5.96;73.69;99276.31;5030954;28;20230;-89
2023/12/09 07:23:43;;;;;;;21.43;11.07;;;;;;;5.90;74.21;99267.84;5032209;28;20190;-89
2023/12/09 07:26:08;;;;;;;34.17;10.03;;;;;;;5.98;74.31;99278.88;5030907;28;20198;-89
2023/12/09 07:28:34;;;;;;;31.13;8.40;;;;;;;6.03;74.11;99272.63;5031475;28;20232;-89
2023/12/09 07:31:02;;;;;;;20.37;8.30;;;;;;;6.25;74.51;99283.19;5030967;28;20201;-88
2023/12/09 07:33:29;;;;;;;43.47;10.53;;;;;;;6.39;73.99;99275.78;5032002;28;20687;-89
2023/12/09 07:35:54;;;;;;;17.40;7.80;;;;;;;6.51;74.02;99269.31;5030511;28;20196;-88
2023/12/09 07:38:22;;;;;;;24.13;9.20;;;;;;;6.60;73.77;99274.22;5031618;28;20625;-89
2023/12/09 07:40:51;;;;;;;17.70;8.43;;;;;;;6.74;72.90;99277.16;5031256;28;20269;-89
2023/12/09 07:43:17;;;;;;;25.13;8.47;;;;;;;6.76;72.82;99283.19;5031778;28;20178;-88
2023/12/09 07:45:43;;;;;;;16.33;6.43;;;;;;;6.79;72.79;99283.06;5030513;28;20209;-92
2023/12/09 07:48:09;;;;;;;19.53;8.13;;;;;;;6.76;71.60;99286.63;5030940;28;20185;-89
2023/12/09 07:50:35;;;;;;;16.10;5.60;;;;;;;6.60;71.72;99289.84;5030924;28;20607;-90
2023/12/09 07:53:04;;;;;;;32.47;7.10;;;;;;;6.70;71.92;99289.47;5031509;28;20239;-88
2023/12/09 07:55:30;;;;;;;19.43;7.23;;;;;;;6.70;71.70;99286.00;5030708;28;20185;-89
2023/12/09 07:57:56;;;;;;;29.33;7.87;;;;;;;6.60;71.88;99297.66;5030780;28;20185;-89
2023/12/09 08:00:21;;;;;;;42.47;6.70;;;;;;;6.60;71.99;99293.25;5031522;28;20225;-88
2023/12/09 08:02:47;;;;;;;15.83;6.57;;;;;;;6.34;71.92;99302.88;5031376;28;20190;-89
2023/12/09 08:05:12;;;;;;;20.17;7.20;;;;;;;6.37;72.18;99293.19;5030325;28;20214;-89
2023/12/09 08:07:38;;;;;;;22.70;7.50;;;;;;;6.41;72.09;99281.78;5029886;28;20271;-89
2023/12/09 08:10:04;;;;;;;35.60;7.90;;;;;;;6.40;72.80;99284.44;5030485;28;20176;-89
2023/12/09 08:12:31;;;;;;;45.77;8.27;;;;;;;6.38;72.47;99284.50;5030049;28;20273;-88
2023/12/09 08:14:57;;;;;;;22.50;7.87;;;;;;;6.22;73.47;99280.69;5030446;28;20184;-89
2023/12/09 08:17:23;;;;;;;57.10;7.33;;;;;;;6.31;73.39;99277.78;5030124;28;20186;-89
2023/12/09 08:19:49;;;;;;;24.07;6.53;;;;;;;6.39;73.54;99275.78;5030013;28;20652;-89
2023/12/09 08:22:15;;;;;;;20.53;6.30;;;;;;;6.25;74.62;99277.13;5031236;28;20200;-88
2023/12/09 08:24:42;;;;;;;12.37;4.73;;;;;;;6.35;74.60;99274.19;5030231;28;20185;-89
2023/12/09 08:27:09;;;;;;;26.73;8.00;;;;;;;6.56;74.31;99268.25;5029917;28;20216;-91
2023/12/09 08:29:35;;;;;;;20.53;6.40;;;;;;;6.52;74.53;99271.00;5029960;28;20184;-89
2023/12/09 08:32:03;;;;;;;15.57;6.97;;;;;;;6.65;75.15;99267.09;5030641;28;20189;-89
2023/12/09 08:34:30;;;;;;;18.33;7.30;;;;;;;6.69;74.81;99261.72;5030673;28;20628;-90
2023/12/09 08:36:57;;;;;;;11.43;4.87;;;;;;;6.35;74.14;99263.75;5029799;28;20174;-89
2023/12/09 08:39:24;;;;;;;19.40;7.90;;;;;;;6.54;74.98;99261.38;5014653;28;20288;-89
2023/12/09 08:41:51;;;;;;;36.53;8.73;;;;;;;6.67;73.50;99260.91;5011011;28;20186;-89
2023/12/09 08:44:19;;;;;;;16.27;6.40;;;;;;;6.86;74.41;99261.13;5020184;28;20208;-90
2023/12/09 08:46:44;;;;;;;20.33;7.43;;;;;;;7.00;74.65;99252.78;5030931;28;20226;-90
2023/12/09 08:49:12;;;;;;;17.37;8.03;;;;;;;6.96;73.88;99251.22;5030935;28;20208;-90
2023/12/09 08:51:46;;;;;;;19.30;7.57;;;;;;;6.82;73.41;99257.78;5029648;28;20187;-89
2023/12/09 08:54:12;;;;;;;14.43;6.90;;;;;;;6.90;72.64;99248.81;5029640;28;20189;-88
2023/12/09 08:56:38;;;;;;;21.23;8.40;;;;;;;7.06;73.15;99247.38;5030114;28;20182;-89
2023/12/09 08:59:07;;;;;;;17.80;8.47;;;;;;;7.17;72.32;99248.69;5029513;28;20673;-90
2023/12/09 09:01:35;;;;;;;18.53;7.97;;;;;;;7.14;72.93;99246.19;5029485;28;20213;-90
2023/12/09 09:04:02;;;;;;;16.40;7.17;;;;;;;7.16;71.65;99243.50;5029579;28;20202;-91
2023/12/09 09:06:29;;;;;;;18.73;6.60;;;;;;;7.02;71.35;99248.41;5029289;28;20225;-90
2023/12/09 09:08:55;;;;;;;22.20;8.37;;;;;;;6.71;72.25;99257.28;5030766;28;20617;-90
2023/12/09 09:11:21;;;;;;;14.97;6.13;;;;;;;6.68;73.83;99251.34;5030223;28;20187;-89
2023/12/09 09:13:48;;;;;;;13.93;6.53;;;;;;;6.52;72.96;99240.63;5029438;28;20185;-90
2023/12/09 09:16:15;;;;;;;17.20;7.97;;;;;;;6.33;74.03;99231.72;5029607;28;20186;-91
2023/12/09 09:18:42;;;;;;;16.27;6.17;;;;;;;6.37;74.28;99225.50;5031037;28;20204;-90
2023/12/09 09:21:09;;;;;;;17.17;7.80;;;;;;;6.44;74.06;99228.75;5030046;28;20315;-90
2023/12/09 09:23:36;;;;;;;18.67;7.73;;;;;;;6.60;73.94;99227.34;5029393;28;20182;-90
2023/12/09 09:26:02;;;;;;;20.40;8.97;;;;;;;6.70;73.75;99221.75;5028910;28;20235;-90
2023/12/09 09:28:29;;;;;;;19.30;9.40;;;;;;;6.59;74.53;99216.06;5030830;28;20649;-90
2023/12/09 09:30:55;;;;;;;21.97;10.07;;;;;;;6.54;74.94;99219.72;5033828;28;20185;-90
2023/12/09 09:33:22;;;;;;;26.63;10.47;;;;;;;6.50;75.27;99218.97;5044249;28;20197;-90
2023/12/09 09:35:52;;;;;;;24.37;9.60;;;;;;;6.80;74.73;99217.91;5053690;28;20217;-89
2023/12/09 09:38:19;;;;;;;23.07;10.90;;;;;;;6.93;73.85;99220.06;5035467;28;20197;-92
2023/12/09 09:40:46;;;;;;;21.23;8.97;;;;;;;6.81;75.00;99216.97;5014441;28;20182;-92
2023/12/09 09:43:20;;;;;;;23.13;10.50;;;;;;;6.93;75.16;99213.09;5013759;28;20183;-91
2023/12/09 09:45:48;;;;;;;26.10;12.47;;;;;;;6.93;74.28;99222.66;5013619;28;20218;-90
2023/12/09 09:48:17;;;;;;;23.03;10.67;;;;;;;6.90;74.38;99220.16;5013437;28;20593;-90
2023/12/09 09:50:45;;;;;;;21.07;9.97;;;;;;;6.78;75.13;99217.13;5029204;28;20201;-91
2023/12/09 09:53:21;;;;;;;22.07;11.77;;;;;;;6.95;76.17;99223.44;5012915;28;20263;-91
2023/12/09 09:55:48;;;;;;;22.30;10.13;;;;;;;7.45;74.72;99214.56;5026379;28;20645;-90
2023/12/09 09:58:16;;;;;;;26.03;11.63;;;;;;;7.72;74.22;99203.06;5032518;28;20193;-91
2023/12/09 10:00:43;;;;;;;22.50;9.43;;;;;;;7.85;73.04;99200.81;5032829;28;20205;-91
2023/12/09 10:03:10;;;;;;;23.70;11.60;;;;;;;8.13;72.54;99195.28;5032316;28;20190;-90
2023/12/09 10:05:37;;;;;;;29.53;12.23;;;;;;;8.27;72.69;99198.22;5036374;28;20211;-91
2023/12/09 10:08:02;;;;;;;21.20;10.47;;;;;;;8.32;70.92;99204.09;5049321;28;20195;-93
2023/12/09 10:10:29;;;;;;;22.70;9.50;;;;;;;8.43;70.31;99191.44;5032871;28;20250;-91
2023/12/09 10:12:56;;;;;;;19.50;10.03;;;;;;;8.48;70.08;99194.69;5043151;28;20181;-92
2023/12/09 10:15:22;;;;;;;24.20;10.87;;;;;;;8.62;70.98;99197.56;5053208;28;20182;-92
2023/12/09 10:17:49;;;;;;;23.93;10.27;;;;;;;8.87;70.65;99192.09;5033465;28;20249;-92
2023/12/09 10:20:16;;;;;;;29.17;13.40;;;;;;;9.08;70.30;99196.34;5033190;28;20182;-91
2023/12/09 10:22:45;;;;;;;21.33;9.83;;;;;;;9.04;68.98;99195.63;5012970;28;20195;-91
2023/12/09 10:25:21;;;;;;;17.10;8.43;;;;;;;9.21;67.91;99192.25;5012621;28;20275;-91
2023/12/09 10:27:46;;;;;;;24.60;10.30;;;;;;;9.36;68.60;99186.31;5017808;28;20220;-93
2023/12/09 10:30:13;;;;;;;23.27;10.60;;;;;;;9.69;67.58;99173.41;5032337;28;20229;-93
2023/12/09 10:32:39;;;;;;;22.20;10.37;;;;;;;9.88;66.17;99163.72;5033226;28;20188;-91
2023/12/09 10:35:06;;;;;;;17.13;8.43;;;;;;;9.81;65.28;99157.94;5032291;28;20189;-91
2023/12/09 10:37:32;;;;;;;19.97;9.67;;;;;;;9.88;65.89;99148.00;5037631;28;20265;-91
2023/12/09 10:40:03;;;;;;;19.03;8.50;;;;;;;9.85;64.44;99153.41;5051447;28;20285;-92
2023/12/09 10:42:30;;;;;;;18.10;8.63;;;;;;;9.86;63.60;99148.09;5052113;28;20191;-92
2023/12/09 10:44:57;;;;;;;15.83;7.27;;;;;;;9.86;63.67;99145.47;5016508;28;20183;-91
2023/12/09 10:47:25;;;;;;;14.93;7.27;;;;;;;9.74;64.17;99140.00;5012238;28;20216;-92
2023/12/09 10:49:51;;;;;;;19.17;7.37;;;;;;;9.53;64.59;99141.06;5015836;28;20172;-94
2023/12/09 10:52:17;;;;;;;18.17;7.70;;;;;;;9.66;65.36;99136.91;5031460;28;20180;-93
2023/12/09 10:54:43;;;;;;;16.80;8.40;;;;;;;9.90;65.95;99130.47;5032358;28;20195;-93
2023/12/09 10:57:11;;;;;;;21.87;8.27;;;;;;;10.17;65.39;99123.88;5019359;28;20199;-92
2023/12/09 10:59:38;;;;;;;19.00;7.40;;;;;;;10.16;65.65;99127.44;5012065;28;20175;-92
2023/12/09 11:02:04;;;;;;;15.73;7.60;;;;;;;10.57;64.75;99119.19;5048207;28;20543;-92
2023/12/09 11:04:32;;;;;;;16.10;7.90;;;;;;;10.78;63.68;99120.66;5031817;28;20591;-92
2023/12/09 11:07:03;;;;;;;16.70;6.90;;;;;;;10.78;60.89;99110.16;5031675;28;20202;-92
2023/12/09 11:09:32;;;;;;;14.20;6.97;;;;;;;10.69;61.80;99115.91;5031862;28;20183;-93
2023/12/09 11:11:58;;;;;;;17.20;8.20;;;;;;;10.73;61.64;99101.72;5033734;28;20214;-91
2023/12/09 11:14:28;;;;;;;19.40;7.83;;;;;;;10.89;61.71;99107.81;5051485;28;20181;-92
2023/12/09 11:16:53;;;;;;;15.70;7.73;;;;;;;11.10;61.92;99104.03;5044280;28;20183;-93
2023/12/09 11:19:23;;;;;;;20.67;8.17;;;;;;;10.89;60.65;99113.91;5031542;28;20178;-94
2023/12/09 11:21:50;;;;;;;92.13;34.90;;;;;;;10.95;59.92;99113.56;5031144;28;20713;-92
2023/12/09 11:24:19;;;;;;;16.50;8.40;;;;;;;10.91;59.85;99105.94;5031626;28;20282;-92
2023/12/09 11:26:51;;;;;;;14.37;7.23;;;;;;;11.15;60.71;99115.13;5031325;28;20254;-92
2023/12/09 11:29:20;;;;;;;13.93;7.40;;;;;;;11.20;61.73;99105.22;5031066;28;20205;-94
2023/12/09 11:31:49;;;;;;;15.10;7.50;;;;;;;11.17;61.14;99102.75;5031476;28;20285;-93